HECP 020600Z 00000KT 4000 BR SCT025 23/20 Q1014 NOSIG
From batch tds/metars/production/2022/10/2/h06_m59_metars.cache.csv.gz
Observed at (about 2 hours ago)
Identifier HECP
HECP 011800Z 34013KT CAVOK 29/15 Q1016 NOSIG
From batch tds/metars/production/2022/10/1/h18_m51_metars.cache.csv.gz
Observed at (about 14 hours ago)
Identifier HECP
HECP 011700Z 36014KT CAVOK 31/14 Q1016 NOSIG
From batch tds/metars/production/2022/10/1/h17_m24_metars.cache.csv.gz
Observed at (about 15 hours ago)
Identifier HECP
HECP 011600Z 35012KT CAVOK 33/15 Q1016 NOSIG
From batch tds/metars/production/2022/10/1/h16_m29_metars.cache.csv.gz
Observed at (about 16 hours ago)
Identifier HECP
HECP 011500Z 36013KT CAVOK 35/14 Q1016 NOSIG
From batch tds/metars/production/2022/10/1/h15_m59_metars.cache.csv.gz
Observed at (about 17 hours ago)
Identifier HECP
HECP 011400Z 36013KT CAVOK 37/14 Q1016 NOSIG
From batch tds/metars/production/2022/10/1/h14_m22_metars.cache.csv.gz
Observed at (about 18 hours ago)
Identifier HECP
HECP 011300Z 01012KT CAVOK 36/14 Q1016 NOSIG
From batch tds/metars/production/2022/10/1/h13_m52_metars.cache.csv.gz
Observed at (about 19 hours ago)
Identifier HECP
HECP 011000Z 03009KT CAVOK 34/16 Q1019 NOSIG
From batch tds/metars/production/2022/10/1/h10_m25_metars.cache.csv.gz
Observed at (about 22 hours ago)
Identifier HECP
HECP 010800Z 05009KT CAVOK 31/17 Q1020 NOSIG
From batch tds/metars/production/2022/10/1/h08_m29_metars.cache.csv.gz
Observed at (about 24 hours ago)
Identifier HECP
HECP 301800Z 04010KT CAVOK 30/17 Q1016 NOSIG
From batch tds/metars/production/2022/9/30/h18_m54_metars.cache.csv.gz
Observed at (1 day ago)
Identifier HECP
HECP 301700Z 03012KT CAVOK 32/16 Q1015 NOSIG
From batch tds/metars/production/2022/9/30/h17_m49_metars.cache.csv.gz
Observed at (1 day ago)
Identifier HECP
HECP 301600Z 03014KT CAVOK 33/16 Q1015 NOSIG
From batch tds/metars/production/2022/9/30/h16_m52_metars.cache.csv.gz
Observed at (1 day ago)
Identifier HECP
HECP 301500Z 04012KT CAVOK 34/15 Q1015 NOSIG
From batch tds/metars/production/2022/9/30/h15_m24_metars.cache.csv.gz
Observed at (1 day ago)
Identifier HECP
HECP 301400Z 05014KT CAVOK 35/15 Q1015 NOSIG
From batch tds/metars/production/2022/9/30/h14_m27_metars.cache.csv.gz
Observed at (1 day ago)
Identifier HECP
HECP 301300Z 04014KT CAVOK 36/14 Q1015 NOSIG
From batch tds/metars/production/2022/9/30/h13_m59_metars.cache.csv.gz
Observed at (2 days ago)
Identifier HECP
HECP 301200Z 05012KT CAVOK 36/12 Q1015 NOSIG
From batch tds/metars/production/2022/9/30/h12_m59_metars.cache.csv.gz
Observed at (2 days ago)
Identifier HECP
HECP 301100Z 05013KT CAVOK 35/12 Q1015 NOSIG
From batch tds/metars/production/2022/9/30/h11_m59_metars.cache.csv.gz
Observed at (2 days ago)
Identifier HECP
HECP 300700Z 07011KT CAVOK 30/13 Q1016 NOSIG
From batch tds/metars/production/2022/9/30/h07_m29_metars.cache.csv.gz
Observed at (2 days ago)
Identifier HECP
HECP 300600Z 00000KT CAVOK 26/18 Q1016 NOSIG
From batch tds/metars/production/2022/9/30/h06_m59_metars.cache.csv.gz
Observed at (2 days ago)
Identifier HECP
HECP 291700Z 03012KT CAVOK 29/13 Q1013 NOSIG
From batch tds/metars/production/2022/9/29/h17_m22_metars.cache.csv.gz
Observed at (3 days ago)
Identifier HECP
HECP 291600Z 05015KT CAVOK 32/12 Q1012 NOSIG
From batch tds/metars/production/2022/9/29/h16_m24_metars.cache.csv.gz
Observed at (3 days ago)
Identifier HECP
HECP 291500Z 04018KT CAVOK 35/10 Q1012 NOSIG
From batch tds/metars/production/2022/9/29/h15_m53_metars.cache.csv.gz
Observed at (3 days ago)
Identifier HECP
HECP 291300Z 03012KT CAVOK 36/10 Q1012 NOSIG
From batch tds/metars/production/2022/9/29/h13_m29_metars.cache.csv.gz
Observed at (3 days ago)
Identifier HECP
HECP 291200Z 04012KT CAVOK 36/10 Q1012 NOSIG
From batch tds/metars/production/2022/9/29/h12_m19_metars.cache.csv.gz
Observed at (3 days ago)
Identifier HECP
HECP 291000Z 06015KT CAVOK 35/10 Q1012 NOSIG
From batch tds/metars/production/2022/9/29/h10_m24_metars.cache.csv.gz
Observed at (3 days ago)
Identifier HECP
HECP 290900Z 05018KT CAVOK 34/10 Q1013 NOSIG
From batch tds/metars/production/2022/9/29/h09_m59_metars.cache.csv.gz
Observed at (3 days ago)
Identifier HECP
HECP 290700Z 07012KT CAVOK 30/11 Q1014 NOSIG
From batch tds/metars/production/2022/9/29/h07_m57_metars.cache.csv.gz
Observed at (3 days ago)
Identifier HECP
HECP 290000Z? NIL
From batch tds/metars/production/2022/9/29/h00_m24_metars.cache.csv.gz
Observed at (3 days ago)
Identifier HECP
HECP 282300Z? NIL
From batch tds/metars/production/2022/9/28/h23_m23_metars.cache.csv.gz
Observed at (3 days ago)
Identifier HECP
HECP 282100Z? NIL
From batch tds/metars/production/2022/9/28/h21_m25_metars.cache.csv.gz
Observed at (3 days ago)
Identifier HECP
HECP 282000Z?NIL
From batch tds/metars/production/2022/9/28/h20_m27_metars.cache.csv.gz
Observed at (3 days ago)
Identifier HECP
HECP 281900Z?NIL
From batch tds/metars/production/2022/9/28/h19_m29_metars.cache.csv.gz
Observed at (4 days ago)
Identifier HECP
HECP 281800Z 03010KT CAVOK 29/14 Q1013 NOSIG
From batch tds/metars/production/2022/9/28/h18_m29_metars.cache.csv.gz
Observed at (4 days ago)
Identifier HECP
HECP 281600Z 02010KT CAVOK 32/10 Q1013 NOSIG
From batch tds/metars/production/2022/9/28/h16_m29_metars.cache.csv.gz
Observed at (4 days ago)
Identifier HECP
HECP 281500Z 03012KT CAVOK 33/10 Q1013 NOSIG
From batch tds/metars/production/2022/9/28/h15_m52_metars.cache.csv.gz
Observed at (4 days ago)
Identifier HECP
HECP 281200Z 02008KT CAVOK 35/08 Q1013 NOSIG
From batch tds/metars/production/2022/9/28/h12_m29_metars.cache.csv.gz
Observed at (4 days ago)
Identifier HECP
HECP 281100Z 04005KT CAVOK 34/07 Q1013 NOSIG
From batch tds/metars/production/2022/9/28/h11_m29_metars.cache.csv.gz
Observed at (4 days ago)
Identifier HECP
HECP 281000Z 05006KT CAVOK 33/07 Q1013 NOSIG
From batch tds/metars/production/2022/9/28/h10_m27_metars.cache.csv.gz
Observed at (4 days ago)
Identifier HECP
HECP 280900Z 07008KT CAVOK 31/12 Q1014 NOSIG
From batch tds/metars/production/2022/9/28/h09_m24_metars.cache.csv.gz
Observed at (4 days ago)
Identifier HECP
HECP 280700Z 14004KT CAVOK 26/18 Q1015 NOSIG
From batch tds/metars/production/2022/9/28/h07_m26_metars.cache.csv.gz
Observed at (4 days ago)
Identifier HECP
HECP 280600Z 13004KT CAVOK 24/18 Q1015 NOSIG
From batch tds/metars/production/2022/9/28/h06_m59_metars.cache.csv.gz
Observed at (4 days ago)
Identifier HECP
HECP 271800Z 36010KT CAVOK 28/16 Q1012 NOSIG
From batch tds/metars/production/2022/9/27/h18_m49_metars.cache.csv.gz
Observed at (5 days ago)
Identifier HECP
HECP 271700Z 35010KT CAVOK 30/15 Q1012 NOSIG
From batch tds/metars/production/2022/9/27/h17_m59_metars.cache.csv.gz
Observed at (5 days ago)
Identifier HECP
HECP 271500Z 35010KT CAVOK 34/13 Q1012 NOSIG
From batch tds/metars/production/2022/9/27/h15_m59_metars.cache.csv.gz
Observed at (5 days ago)
Identifier HECP
HECP 271400Z 36012KT CAVOK 35/12 Q1012 NOSIG
From batch tds/metars/production/2022/9/27/h14_m29_metars.cache.csv.gz
Observed at (5 days ago)
Identifier HECP
HECP 271300Z 04005KT CAVOK 36/12 Q1013 NOSIG
From batch tds/metars/production/2022/9/27/h13_m54_metars.cache.csv.gz
Observed at (5 days ago)
Identifier HECP
HECP 271100Z 36008KT CAVOK 34/14 Q1014 NOSIG
From batch tds/metars/production/2022/9/27/h11_m23_metars.cache.csv.gz
Observed at (5 days ago)
Identifier HECP
HECP 270800Z 05008KT CAVOK 28/18 Q1015 NOSIG
From batch tds/metars/production/2022/9/27/h08_m29_metars.cache.csv.gz
Observed at (5 days ago)
Identifier HECP
talk